sensor_id;sensor_type;location;lat;lon;timestamp;P1;durP1;ratioP1;P2;durP2;ratioP2
48207;SDS011;33997;53.278;9.708;2023-07-20T00:00:44;7.20;;;4.55;;
48207;SDS011;33997;53.278;9.708;2023-07-20T00:03:13;8.80;;;4.72;;
48207;SDS011;33997;53.278;9.708;2023-07-20T00:05:42;9.40;;;5.18;;
48207;SDS011;33997;53.278;9.708;2023-07-20T00:08:08;12.30;;;5.60;;
48207;SDS011;33997;53.278;9.708;2023-07-20T00:10:34;10.52;;;5.43;;
48207;SDS011;33997;53.278;9.708;2023-07-20T00:12:59;10.82;;;5.22;;
48207;SDS011;33997;53.278;9.708;2023-07-20T00:15:25;9.48;;;5.15;;
48207;SDS011;33997;53.278;9.708;2023-07-20T00:17:50;11.32;;;5.90;;
48207;SDS011;33997;53.278;9.708;2023-07-20T00:20:16;11.70;;;6.47;;
48207;SDS011;33997;53.278;9.708;2023-07-20T00:22:42;12.65;;;7.47;;
48207;SDS011;33997;53.278;9.708;2023-07-20T00:25:08;12.05;;;6.57;;
48207;SDS011;33997;53.278;9.708;2023-07-20T00:27:36;10.82;;;6.28;;
48207;SDS011;33997;53.278;9.708;2023-07-20T00:30:02;13.85;;;7.82;;
48207;SDS011;33997;53.278;9.708;2023-07-20T00:32:29;13.00;;;7.10;;
48207;SDS011;33997;53.278;9.708;2023-07-20T00:34:54;12.43;;;6.57;;
48207;SDS011;33997;53.278;9.708;2023-07-20T00:37:19;12.27;;;7.20;;
48207;SDS011;33997;53.278;9.708;2023-07-20T00:39:45;12.70;;;6.55;;
48207;SDS011;33997;53.278;9.708;2023-07-20T00:42:10;10.38;;;7.18;;
48207;SDS011;33997;53.278;9.708;2023-07-20T00:44:36;12.10;;;6.85;;
48207;SDS011;33997;53.278;9.708;2023-07-20T00:47:01;10.23;;;6.60;;
48207;SDS011;33997;53.278;9.708;2023-07-20T00:49:27;10.75;;;6.22;;
48207;SDS011;33997;53.278;9.708;2023-07-20T00:51:52;10.40;;;6.20;;
48207;SDS011;33997;53.278;9.708;2023-07-20T00:54:18;9.63;;;6.68;;
48207;SDS011;33997;53.278;9.708;2023-07-20T00:56:43;10.77;;;6.18;;
48207;SDS011;33997;53.278;9.708;2023-07-20T00:59:09;10.05;;;6.05;;
48207;SDS011;33997;53.278;9.708;2023-07-20T01:01:36;11.05;;;6.22;;
48207;SDS011;33997;53.278;9.708;2023-07-20T01:04:01;9.38;;;6.25;;
48207;SDS011;33997;53.278;9.708;2023-07-20T01:06:33;9.20;;;5.93;;
48207;SDS011;33997;53.278;9.708;2023-07-20T01:09:16;8.43;;;5.35;;
48207;SDS011;33997;53.278;9.708;2023-07-20T01:14:23;7.78;;;5.50;;
48207;SDS011;33997;53.278;9.708;2023-07-20T01:16:50;8.43;;;5.63;;
48207;SDS011;33997;53.278;9.708;2023-07-20T01:19:17;9.60;;;5.93;;
48207;SDS011;33997;53.278;9.708;2023-07-20T01:21:57;10.73;;;6.20;;
48207;SDS011;33997;53.278;9.708;2023-07-20T01:24:45;9.45;;;6.22;;
48207;SDS011;33997;53.278;9.708;2023-07-20T01:33:08;10.43;;;6.43;;
48207;SDS011;33997;53.278;9.708;2023-07-20T01:35:36;11.13;;;6.13;;
48207;SDS011;33997;53.278;9.708;2023-07-20T01:38:03;7.97;;;5.70;;
48207;SDS011;33997;53.278;9.708;2023-07-20T01:40:29;11.25;;;6.68;;
48207;SDS011;33997;53.278;9.708;2023-07-20T01:42:55;8.75;;;5.75;;
48207;SDS011;33997;53.278;9.708;2023-07-20T01:45:21;7.28;;;5.40;;
48207;SDS011;33997;53.278;9.708;2023-07-20T01:47:47;11.77;;;4.82;;
48207;SDS011;33997;53.278;9.708;2023-07-20T01:50:12;8.73;;;5.18;;
48207;SDS011;33997;53.278;9.708;2023-07-20T01:52:37;6.95;;;4.90;;
48207;SDS011;33997;53.278;9.708;2023-07-20T01:55:03;8.10;;;4.80;;
48207;SDS011;33997;53.278;9.708;2023-07-20T01:57:29;7.28;;;4.25;;
48207;SDS011;33997;53.278;9.708;2023-07-20T01:59:55;6.93;;;4.22;;
48207;SDS011;33997;53.278;9.708;2023-07-20T02:02:20;8.05;;;3.97;;
48207;SDS011;33997;53.278;9.708;2023-07-20T02:04:46;6.22;;;3.50;;
48207;SDS011;33997;53.278;9.708;2023-07-20T02:07:11;7.15;;;3.85;;
48207;SDS011;33997;53.278;9.708;2023-07-20T02:09:37;6.22;;;4.20;;
48207;SDS011;33997;53.278;9.708;2023-07-20T02:12:02;12.05;;;4.82;;
48207;SDS011;33997;53.278;9.708;2023-07-20T02:14:28;7.65;;;4.80;;
48207;SDS011;33997;53.278;9.708;2023-07-20T02:16:53;9.45;;;4.72;;
48207;SDS011;33997;53.278;9.708;2023-07-20T02:19:24;10.40;;;5.25;;
48207;SDS011;33997;53.278;9.708;2023-07-20T02:21:50;8.77;;;5.47;;
48207;SDS011;33997;53.278;9.708;2023-07-20T02:24:15;8.35;;;5.57;;
48207;SDS011;33997;53.278;9.708;2023-07-20T02:26:41;11.50;;;6.13;;
48207;SDS011;33997;53.278;9.708;2023-07-20T02:29:07;10.68;;;6.40;;
48207;SDS011;33997;53.278;9.708;2023-07-20T02:31:32;9.20;;;6.00;;
48207;SDS011;33997;53.278;9.708;2023-07-20T02:33:58;11.45;;;6.22;;
48207;SDS011;33997;53.278;9.708;2023-07-20T02:36:23;8.45;;;5.90;;
48207;SDS011;33997;53.278;9.708;2023-07-20T02:38:49;8.35;;;5.45;;
48207;SDS011;33997;53.278;9.708;2023-07-20T02:41:14;10.52;;;5.63;;
48207;SDS011;33997;53.278;9.708;2023-07-20T02:43:40;8.90;;;5.65;;
48207;SDS011;33997;53.278;9.708;2023-07-20T02:46:05;11.15;;;5.45;;
48207;SDS011;33997;53.278;9.708;2023-07-20T02:48:31;10.55;;;5.40;;
48207;SDS011;33997;53.278;9.708;2023-07-20T02:50:56;10.07;;;5.80;;
48207;SDS011;33997;53.278;9.708;2023-07-20T02:53:22;8.20;;;5.13;;
48207;SDS011;33997;53.278;9.708;2023-07-20T02:55:47;8.45;;;4.93;;
48207;SDS011;33997;53.278;9.708;2023-07-20T02:58:13;8.68;;;5.28;;
48207;SDS011;33997;53.278;9.708;2023-07-20T03:00:38;8.95;;;5.63;;
48207;SDS011;33997;53.278;9.708;2023-07-20T03:03:04;10.75;;;5.13;;
48207;SDS011;33997;53.278;9.708;2023-07-20T03:05:34;9.67;;;5.30;;
48207;SDS011;33997;53.278;9.708;2023-07-20T03:08:00;9.18;;;5.60;;
48207;SDS011;33997;53.278;9.708;2023-07-20T03:10:27;15.10;;;5.72;;
48207;SDS011;33997;53.278;9.708;2023-07-20T03:12:53;10.13;;;6.00;;
48207;SDS011;33997;53.278;9.708;2023-07-20T03:15:18;10.25;;;5.50;;
48207;SDS011;33997;53.278;9.708;2023-07-20T03:17:44;8.70;;;5.80;;
48207;SDS011;33997;53.278;9.708;2023-07-20T03:20:09;11.10;;;6.63;;
48207;SDS011;33997;53.278;9.708;2023-07-20T03:22:35;11.73;;;6.10;;
48207;SDS011;33997;53.278;9.708;2023-07-20T03:25:01;11.18;;;6.97;;
48207;SDS011;33997;53.278;9.708;2023-07-20T03:27:26;9.55;;;6.20;;
48207;SDS011;33997;53.278;9.708;2023-07-20T03:29:54;9.35;;;6.28;;
48207;SDS011;33997;53.278;9.708;2023-07-20T03:32:19;15.05;;;6.72;;
48207;SDS011;33997;53.278;9.708;2023-07-20T03:34:44;10.57;;;7.00;;
48207;SDS011;33997;53.278;9.708;2023-07-20T03:37:10;10.23;;;6.45;;
48207;SDS011;33997;53.278;9.708;2023-07-20T03:39:36;13.38;;;6.90;;
48207;SDS011;33997;53.278;9.708;2023-07-20T03:42:01;10.88;;;6.93;;
48207;SDS011;33997;53.278;9.708;2023-07-20T03:44:27;13.60;;;7.40;;
48207;SDS011;33997;53.278;9.708;2023-07-20T03:46:52;12.02;;;6.53;;
48207;SDS011;33997;53.278;9.708;2023-07-20T03:49:18;14.13;;;7.57;;
48207;SDS011;33997;53.278;9.708;2023-07-20T03:51:43;14.25;;;7.55;;
48207;SDS011;33997;53.278;9.708;2023-07-20T03:54:09;12.48;;;7.72;;
48207;SDS011;33997;53.278;9.708;2023-07-20T03:56:34;15.98;;;7.75;;
48207;SDS011;33997;53.278;9.708;2023-07-20T03:59:00;13.02;;;7.60;;
48207;SDS011;33997;53.278;9.708;2023-07-20T04:01:26;15.77;;;8.07;;
48207;SDS011;33997;53.278;9.708;2023-07-20T04:03:51;11.95;;;8.20;;
48207;SDS011;33997;53.278;9.708;2023-07-20T04:06:17;16.63;;;8.27;;
48207;SDS011;33997;53.278;9.708;2023-07-20T04:08:42;11.02;;;7.53;;
48207;SDS011;33997;53.278;9.708;2023-07-20T04:11:09;14.88;;;8.57;;
48207;SDS011;33997;53.278;9.708;2023-07-20T04:13:34;12.07;;;7.75;;
48207;SDS011;33997;53.278;9.708;2023-07-20T04:16:00;10.55;;;8.25;;
48207;SDS011;33997;53.278;9.708;2023-07-20T04:18:25;11.55;;;7.68;;
48207;SDS011;33997;53.278;9.708;2023-07-20T04:20:51;12.80;;;8.52;;
48207;SDS011;33997;53.278;9.708;2023-07-20T04:23:16;11.77;;;7.63;;
48207;SDS011;33997;53.278;9.708;2023-07-20T04:25:42;12.90;;;7.00;;
48207;SDS011;33997;53.278;9.708;2023-07-20T04:28:07;11.35;;;7.53;;
48207;SDS011;33997;53.278;9.708;2023-07-20T04:30:37;12.18;;;7.60;;
48207;SDS011;33997;53.278;9.708;2023-07-20T04:33:04;13.80;;;7.72;;
48207;SDS011;33997;53.278;9.708;2023-07-20T04:35:46;10.02;;;7.20;;
48207;SDS011;33997;53.278;9.708;2023-07-20T04:38:14;10.02;;;7.50;;
48207;SDS011;33997;53.278;9.708;2023-07-20T04:40:43;10.00;;;6.90;;
48207;SDS011;33997;53.278;9.708;2023-07-20T04:43:09;11.32;;;7.50;;
48207;SDS011;33997;53.278;9.708;2023-07-20T04:45:35;12.75;;;7.30;;
48207;SDS011;33997;53.278;9.708;2023-07-20T04:48:00;11.18;;;7.60;;
48207;SDS011;33997;53.278;9.708;2023-07-20T04:50:26;10.02;;;6.95;;
48207;SDS011;33997;53.278;9.708;2023-07-20T04:52:51;12.50;;;7.20;;
48207;SDS011;33997;53.278;9.708;2023-07-20T04:55:18;11.73;;;7.82;;
48207;SDS011;33997;53.278;9.708;2023-07-20T04:57:43;11.80;;;6.90;;
48207;SDS011;33997;53.278;9.708;2023-07-20T05:00:09;10.05;;;6.43;;
48207;SDS011;33997;53.278;9.708;2023-07-20T05:02:36;11.13;;;7.28;;
48207;SDS011;33997;53.278;9.708;2023-07-20T05:05:02;8.80;;;6.00;;
48207;SDS011;33997;53.278;9.708;2023-07-20T05:07:30;8.50;;;6.50;;
48207;SDS011;33997;53.278;9.708;2023-07-20T05:09:56;10.35;;;6.32;;
48207;SDS011;33997;53.278;9.708;2023-07-20T05:12:22;8.80;;;6.15;;
48207;SDS011;33997;53.278;9.708;2023-07-20T05:14:47;9.90;;;6.20;;
48207;SDS011;33997;53.278;9.708;2023-07-20T05:17:12;8.52;;;5.78;;
48207;SDS011;33997;53.278;9.708;2023-07-20T05:19:38;7.80;;;5.32;;
48207;SDS011;33997;53.278;9.708;2023-07-20T05:22:04;8.32;;;6.00;;
48207;SDS011;33997;53.278;9.708;2023-07-20T05:24:30;7.95;;;5.90;;
48207;SDS011;33997;53.278;9.708;2023-07-20T05:26:56;9.02;;;5.82;;
48207;SDS011;33997;53.278;9.708;2023-07-20T05:29:23;8.98;;;5.97;;
48207;SDS011;33997;53.278;9.708;2023-07-20T05:31:48;8.45;;;6.28;;
48207;SDS011;33997;53.278;9.708;2023-07-20T05:34:14;11.93;;;6.35;;
48207;SDS011;33997;53.278;9.708;2023-07-20T05:36:39;9.25;;;6.78;;
48207;SDS011;33997;53.278;9.708;2023-07-20T05:39:05;8.73;;;6.55;;
48207;SDS011;33997;53.278;9.708;2023-07-20T05:41:30;11.82;;;6.45;;
48207;SDS011;33997;53.278;9.708;2023-07-20T05:43:56;7.63;;;6.65;;
48207;SDS011;33997;53.278;9.708;2023-07-20T05:46:21;8.20;;;6.47;;
48207;SDS011;33997;53.278;9.708;2023-07-20T05:48:46;8.90;;;6.97;;
48207;SDS011;33997;53.278;9.708;2023-07-20T05:51:12;10.20;;;7.22;;
48207;SDS011;33997;53.278;9.708;2023-07-20T05:53:37;10.18;;;7.80;;
48207;SDS011;33997;53.278;9.708;2023-07-20T05:56:03;12.32;;;7.75;;
48207;SDS011;33997;53.278;9.708;2023-07-20T05:58:29;9.70;;;7.15;;
48207;SDS011;33997;53.278;9.708;2023-07-20T06:00:54;10.52;;;8.32;;
48207;SDS011;33997;53.278;9.708;2023-07-20T06:03:20;9.98;;;7.70;;
48207;SDS011;33997;53.278;9.708;2023-07-20T06:05:48;11.35;;;7.32;;
48207;SDS011;33997;53.278;9.708;2023-07-20T06:08:13;9.85;;;7.13;;
48207;SDS011;33997;53.278;9.708;2023-07-20T06:10:39;9.65;;;7.30;;
48207;SDS011;33997;53.278;9.708;2023-07-20T06:13:04;9.23;;;7.03;;
48207;SDS011;33997;53.278;9.708;2023-07-20T06:15:33;9.70;;;6.60;;
48207;SDS011;33997;53.278;9.708;2023-07-20T06:18:03;8.80;;;7.07;;
48207;SDS011;33997;53.278;9.708;2023-07-20T06:20:28;7.90;;;5.85;;
48207;SDS011;33997;53.278;9.708;2023-07-20T06:22:54;7.68;;;6.13;;
48207;SDS011;33997;53.278;9.708;2023-07-20T06:25:20;8.75;;;6.07;;
48207;SDS011;33997;53.278;9.708;2023-07-20T06:27:46;6.70;;;5.25;;
48207;SDS011;33997;53.278;9.708;2023-07-20T06:30:11;8.40;;;5.10;;
48207;SDS011;33997;53.278;9.708;2023-07-20T06:32:37;8.77;;;4.53;;
48207;SDS011;33997;53.278;9.708;2023-07-20T06:35:03;6.28;;;4.18;;
48207;SDS011;33997;53.278;9.708;2023-07-20T06:37:29;4.95;;;3.10;;
48207;SDS011;33997;53.278;9.708;2023-07-20T06:39:54;5.90;;;2.90;;
48207;SDS011;33997;53.278;9.708;2023-07-20T06:42:20;7.70;;;2.75;;
48207;SDS011;33997;53.278;9.708;2023-07-20T06:44:45;6.35;;;2.70;;
48207;SDS011;33997;53.278;9.708;2023-07-20T06:47:11;6.68;;;2.10;;
48207;SDS011;33997;53.278;9.708;2023-07-20T06:49:37;3.72;;;1.95;;
48207;SDS011;33997;53.278;9.708;2023-07-20T06:52:02;2.78;;;1.73;;
48207;SDS011;33997;53.278;9.708;2023-07-20T06:54:28;3.30;;;1.40;;
48207;SDS011;33997;53.278;9.708;2023-07-20T06:56:54;3.83;;;1.42;;
48207;SDS011;33997;53.278;9.708;2023-07-20T06:59:19;3.28;;;1.27;;
48207;SDS011;33997;53.278;9.708;2023-07-20T07:01:46;2.65;;;1.15;;
48207;SDS011;33997;53.278;9.708;2023-07-20T07:04:11;2.78;;;1.25;;
48207;SDS011;33997;53.278;9.708;2023-07-20T07:06:37;1.95;;;1.10;;
48207;SDS011;33997;53.278;9.708;2023-07-20T07:09:02;2.58;;;1.45;;
48207;SDS011;33997;53.278;9.708;2023-07-20T07:11:28;3.95;;;1.20;;
48207;SDS011;33997;53.278;9.708;2023-07-20T07:13:54;2.85;;;1.33;;
48207;SDS011;33997;53.278;9.708;2023-07-20T07:16:19;1.40;;;1.13;;
48207;SDS011;33997;53.278;9.708;2023-07-20T07:18:45;2.85;;;1.50;;
48207;SDS011;33997;53.278;9.708;2023-07-20T07:21:11;3.22;;;1.30;;
48207;SDS011;33997;53.278;9.708;2023-07-20T07:23:37;2.15;;;1.10;;
48207;SDS011;33997;53.278;9.708;2023-07-20T07:26:03;1.50;;;0.82;;
48207;SDS011;33997;53.278;9.708;2023-07-20T07:28:29;4.65;;;1.15;;
48207;SDS011;33997;53.278;9.708;2023-07-20T07:30:54;2.53;;;1.00;;
48207;SDS011;33997;53.278;9.708;2023-07-20T07:33:21;2.65;;;0.90;;
48207;SDS011;33997;53.278;9.708;2023-07-20T07:35:47;4.40;;;0.98;;
48207;SDS011;33997;53.278;9.708;2023-07-20T07:38:14;5.10;;;1.10;;
48207;SDS011;33997;53.278;9.708;2023-07-20T07:40:39;4.57;;;1.00;;
48207;SDS011;33997;53.278;9.708;2023-07-20T07:43:05;5.10;;;1.10;;
48207;SDS011;33997;53.278;9.708;2023-07-20T07:45:31;2.90;;;1.10;;
48207;SDS011;33997;53.278;9.708;2023-07-20T07:48:00;4.53;;;1.27;;
48207;SDS011;33997;53.278;9.708;2023-07-20T07:50:26;6.28;;;1.02;;
48207;SDS011;33997;53.278;9.708;2023-07-20T07:52:52;1.38;;;0.65;;
48207;SDS011;33997;53.278;9.708;2023-07-20T07:55:17;1.73;;;0.70;;
48207;SDS011;33997;53.278;9.708;2023-07-20T07:57:43;5.47;;;1.10;;
48207;SDS011;33997;53.278;9.708;2023-07-20T08:00:08;7.57;;;0.90;;
48207;SDS011;33997;53.278;9.708;2023-07-20T08:02:39;6.43;;;1.30;;
48207;SDS011;33997;53.278;9.708;2023-07-20T08:05:08;1.52;;;0.80;;
48207;SDS011;33997;53.278;9.708;2023-07-20T08:07:34;4.53;;;0.88;;
48207;SDS011;33997;53.278;9.708;2023-07-20T08:10:00;3.65;;;0.90;;
48207;SDS011;33997;53.278;9.708;2023-07-20T08:12:25;3.72;;;1.10;;
48207;SDS011;33997;53.278;9.708;2023-07-20T08:14:51;2.25;;;0.90;;
48207;SDS011;33997;53.278;9.708;2023-07-20T08:17:16;3.60;;;1.10;;
48207;SDS011;33997;53.278;9.708;2023-07-20T08:19:42;2.80;;;0.88;;
48207;SDS011;33997;53.278;9.708;2023-07-20T08:22:09;1.63;;;0.95;;
48207;SDS011;33997;53.278;9.708;2023-07-20T08:24:34;2.97;;;0.85;;
48207;SDS011;33997;53.278;9.708;2023-07-20T08:27:04;4.50;;;1.02;;
48207;SDS011;33997;53.278;9.708;2023-07-20T08:29:29;4.38;;;1.08;;
48207;SDS011;33997;53.278;9.708;2023-07-20T08:31:55;1.95;;;0.85;;
48207;SDS011;33997;53.278;9.708;2023-07-20T08:34:20;2.55;;;1.00;;
48207;SDS011;33997;53.278;9.708;2023-07-20T08:36:46;6.97;;;1.10;;
48207;SDS011;33997;53.278;9.708;2023-07-20T08:39:11;4.15;;;0.90;;
48207;SDS011;33997;53.278;9.708;2023-07-20T08:41:37;2.88;;;0.82;;
48207;SDS011;33997;53.278;9.708;2023-07-20T08:44:04;2.58;;;1.05;;
48207;SDS011;33997;53.278;9.708;2023-07-20T08:46:30;3.65;;;0.85;;
48207;SDS011;33997;53.278;9.708;2023-07-20T08:48:56;2.40;;;0.90;;
48207;SDS011;33997;53.278;9.708;2023-07-20T08:51:23;3.88;;;1.10;;
48207;SDS011;33997;53.278;9.708;2023-07-20T08:53:49;3.92;;;1.00;;
48207;SDS011;33997;53.278;9.708;2023-07-20T08:56:16;6.20;;;1.27;;
48207;SDS011;33997;53.278;9.708;2023-07-20T08:58:43;4.65;;;1.40;;
48207;SDS011;33997;53.278;9.708;2023-07-20T09:01:10;3.80;;;1.17;;
48207;SDS011;33997;53.278;9.708;2023-07-20T09:03:36;3.58;;;1.10;;
48207;SDS011;33997;53.278;9.708;2023-07-20T09:06:05;2.63;;;1.13;;
48207;SDS011;33997;53.278;9.708;2023-07-20T09:08:31;5.40;;;1.27;;
48207;SDS011;33997;53.278;9.708;2023-07-20T09:10:56;4.00;;;1.10;;
48207;SDS011;33997;53.278;9.708;2023-07-20T09:13:22;4.10;;;1.45;;
48207;SDS011;33997;53.278;9.708;2023-07-20T09:15:53;5.13;;;1.10;;
48207;SDS011;33997;53.278;9.708;2023-07-20T09:18:26;5.28;;;1.20;;
48207;SDS011;33997;53.278;9.708;2023-07-20T09:20:53;6.68;;;1.50;;
48207;SDS011;33997;53.278;9.708;2023-07-20T09:23:34;5.00;;;1.35;;
48207;SDS011;33997;53.278;9.708;2023-07-20T09:26:01;7.72;;;1.40;;
48207;SDS011;33997;53.278;9.708;2023-07-20T09:28:47;4.32;;;1.15;;
48207;SDS011;33997;53.278;9.708;2023-07-20T09:31:17;4.22;;;1.25;;
48207;SDS011;33997;53.278;9.708;2023-07-20T09:33:44;4.28;;;1.48;;
48207;SDS011;33997;53.278;9.708;2023-07-20T09:36:10;6.88;;;1.50;;
48207;SDS011;33997;53.278;9.708;2023-07-20T09:38:39;5.47;;;1.33;;
48207;SDS011;33997;53.278;9.708;2023-07-20T09:41:06;2.38;;;1.00;;
48207;SDS011;33997;53.278;9.708;2023-07-20T09:43:33;4.95;;;1.50;;
48207;SDS011;33997;53.278;9.708;2023-07-20T09:45:59;5.45;;;1.10;;
48207;SDS011;33997;53.278;9.708;2023-07-20T09:48:25;2.15;;;0.98;;
48207;SDS011;33997;53.278;9.708;2023-07-20T09:50:51;4.63;;;1.05;;
48207;SDS011;33997;53.278;9.708;2023-07-20T09:53:19;4.05;;;1.33;;
48207;SDS011;33997;53.278;9.708;2023-07-20T09:55:45;2.10;;;0.95;;
48207;SDS011;33997;53.278;9.708;2023-07-20T09:58:12;5.63;;;1.45;;
48207;SDS011;33997;53.278;9.708;2023-07-20T10:00:38;4.57;;;1.25;;
48207;SDS011;33997;53.278;9.708;2023-07-20T10:03:05;6.97;;;1.48;;
48207;SDS011;33997;53.278;9.708;2023-07-20T10:05:35;6.20;;;1.63;;
48207;SDS011;33997;53.278;9.708;2023-07-20T10:08:02;5.43;;;1.52;;
48207;SDS011;33997;53.278;9.708;2023-07-20T10:10:30;3.85;;;1.70;;
48207;SDS011;33997;53.278;9.708;2023-07-20T10:12:57;3.78;;;1.60;;
48207;SDS011;33997;53.278;9.708;2023-07-20T10:15:30;5.80;;;1.50;;
48207;SDS011;33997;53.278;9.708;2023-07-20T10:20:36;7.25;;;1.73;;
48207;SDS011;33997;53.278;9.708;2023-07-20T10:23:04;6.10;;;1.45;;
48207;SDS011;33997;53.278;9.708;2023-07-20T10:25:31;7.40;;;1.50;;
48207;SDS011;33997;53.278;9.708;2023-07-20T10:27:57;5.15;;;1.30;;
48207;SDS011;33997;53.278;9.708;2023-07-20T10:30:24;5.35;;;1.73;;
48207;SDS011;33997;53.278;9.708;2023-07-20T10:32:50;6.38;;;1.55;;
48207;SDS011;33997;53.278;9.708;2023-07-20T10:35:18;5.40;;;1.65;;
48207;SDS011;33997;53.278;9.708;2023-07-20T10:37:53;4.65;;;1.48;;
48207;SDS011;33997;53.278;9.708;2023-07-20T10:40:29;5.05;;;1.42;;
48207;SDS011;33997;53.278;9.708;2023-07-20T10:43:03;5.25;;;1.00;;
48207;SDS011;33997;53.278;9.708;2023-07-20T10:48:25;3.30;;;0.80;;
48207;SDS011;33997;53.278;9.708;2023-07-20T10:56:13;2.92;;;0.90;;
48207;SDS011;33997;53.278;9.708;2023-07-20T10:58:40;6.22;;;1.20;;
48207;SDS011;33997;53.278;9.708;2023-07-20T11:01:07;6.43;;;1.25;;
48207;SDS011;33997;53.278;9.708;2023-07-20T11:03:34;4.50;;;1.25;;
48207;SDS011;33997;53.278;9.708;2023-07-20T11:08:48;4.88;;;0.93;;
48207;SDS011;33997;53.278;9.708;2023-07-20T11:16:33;3.65;;;1.05;;
48207;SDS011;33997;53.278;9.708;2023-07-20T11:19:15;4.30;;;0.85;;
48207;SDS011;33997;53.278;9.708;2023-07-20T11:21:46;7.35;;;1.00;;
48207;SDS011;33997;53.278;9.708;2023-07-20T11:24:15;5.10;;;0.80;;
48207;SDS011;33997;53.278;9.708;2023-07-20T11:26:41;4.43;;;0.90;;
48207;SDS011;33997;53.278;9.708;2023-07-20T11:29:08;3.60;;;1.00;;
48207;SDS011;33997;53.278;9.708;2023-07-20T11:31:40;4.75;;;1.25;;
48207;SDS011;33997;53.278;9.708;2023-07-20T11:34:10;3.88;;;0.95;;
48207;SDS011;33997;53.278;9.708;2023-07-20T11:36:40;4.38;;;1.10;;
48207;SDS011;33997;53.278;9.708;2023-07-20T11:39:10;5.25;;;1.05;;
48207;SDS011;33997;53.278;9.708;2023-07-20T11:41:36;4.28;;;0.93;;
48207;SDS011;33997;53.278;9.708;2023-07-20T11:44:03;4.38;;;0.88;;
48207;SDS011;33997;53.278;9.708;2023-07-20T11:46:31;3.03;;;0.70;;
48207;SDS011;33997;53.278;9.708;2023-07-20T11:48:57;2.50;;;0.80;;
48207;SDS011;33997;53.278;9.708;2023-07-20T11:51:27;6.60;;;0.82;;
48207;SDS011;33997;53.278;9.708;2023-07-20T11:53:54;5.85;;;1.25;;
48207;SDS011;33997;53.278;9.708;2023-07-20T11:56:20;6.32;;;0.85;;
48207;SDS011;33997;53.278;9.708;2023-07-20T11:58:47;2.53;;;0.88;;
48207;SDS011;33997;53.278;9.708;2023-07-20T12:01:13;2.33;;;0.80;;
48207;SDS011;33997;53.278;9.708;2023-07-20T12:03:39;5.68;;;0.98;;
48207;SDS011;33997;53.278;9.708;2023-07-20T12:06:07;7.90;;;1.20;;
48207;SDS011;33997;53.278;9.708;2023-07-20T12:08:33;2.70;;;0.80;;
48207;SDS011;33997;53.278;9.708;2023-07-20T12:10:59;3.10;;;0.80;;
48207;SDS011;33997;53.278;9.708;2023-07-20T12:13:44;5.50;;;1.00;;
48207;SDS011;33997;53.278;9.708;2023-07-20T12:16:10;3.90;;;0.88;;
48207;SDS011;33997;53.278;9.708;2023-07-20T12:18:40;1.75;;;0.60;;
48207;SDS011;33997;53.278;9.708;2023-07-20T12:21:06;1.92;;;0.60;;
48207;SDS011;33997;53.278;9.708;2023-07-20T12:23:39;4.55;;;0.98;;
48207;SDS011;33997;53.278;9.708;2023-07-20T12:26:09;6.30;;;1.00;;
48207;SDS011;33997;53.278;9.708;2023-07-20T12:28:36;4.88;;;0.75;;
48207;SDS011;33997;53.278;9.708;2023-07-20T12:31:05;3.55;;;0.77;;
48207;SDS011;33997;53.278;9.708;2023-07-20T12:33:31;2.45;;;0.73;;
48207;SDS011;33997;53.278;9.708;2023-07-20T12:35:57;2.83;;;0.90;;
48207;SDS011;33997;53.278;9.708;2023-07-20T12:38:24;1.30;;;0.60;;
48207;SDS011;33997;53.278;9.708;2023-07-20T12:40:50;4.53;;;0.90;;
48207;SDS011;33997;53.278;9.708;2023-07-20T12:43:16;5.20;;;0.77;;
48207;SDS011;33997;53.278;9.708;2023-07-20T12:45:41;4.80;;;0.70;;
48207;SDS011;33997;53.278;9.708;2023-07-20T12:48:07;2.65;;;0.80;;
48207;SDS011;33997;53.278;9.708;2023-07-20T12:50:33;2.83;;;0.60;;
48207;SDS011;33997;53.278;9.708;2023-07-20T12:52:58;4.28;;;0.80;;
48207;SDS011;33997;53.278;9.708;2023-07-20T12:55:24;1.83;;;0.55;;
48207;SDS011;33997;53.278;9.708;2023-07-20T12:57:49;4.43;;;0.80;;
48207;SDS011;33997;53.278;9.708;2023-07-20T13:00:15;1.80;;;0.50;;
48207;SDS011;33997;53.278;9.708;2023-07-20T13:02:41;2.55;;;0.40;;
48207;SDS011;33997;53.278;9.708;2023-07-20T13:05:08;2.90;;;0.57;;
48207;SDS011;33997;53.278;9.708;2023-07-20T13:07:35;2.05;;;0.52;;
48207;SDS011;33997;53.278;9.708;2023-07-20T13:10:04;1.85;;;0.45;;
48207;SDS011;33997;53.278;9.708;2023-07-20T13:12:31;1.67;;;0.47;;
48207;SDS011;33997;53.278;9.708;2023-07-20T13:14:58;3.78;;;0.60;;
48207;SDS011;33997;53.278;9.708;2023-07-20T13:17:27;2.88;;;0.45;;
48207;SDS011;33997;53.278;9.708;2023-07-20T13:19:54;1.88;;;0.43;;
48207;SDS011;33997;53.278;9.708;2023-07-20T13:22:19;4.45;;;0.75;;
48207;SDS011;33997;53.278;9.708;2023-07-20T13:24:45;1.85;;;0.50;;
48207;SDS011;33997;53.278;9.708;2023-07-20T13:27:14;3.42;;;0.80;;
48207;SDS011;33997;53.278;9.708;2023-07-20T13:29:40;4.07;;;0.82;;
48207;SDS011;33997;53.278;9.708;2023-07-20T13:32:06;5.30;;;0.80;;
48207;SDS011;33997;53.278;9.708;2023-07-20T13:34:32;5.05;;;0.85;;
48207;SDS011;33997;53.278;9.708;2023-07-20T13:36:57;5.10;;;0.88;;
48207;SDS011;33997;53.278;9.708;2023-07-20T13:39:23;3.20;;;0.88;;
48207;SDS011;33997;53.278;9.708;2023-07-20T13:41:51;2.15;;;0.55;;
48207;SDS011;33997;53.278;9.708;2023-07-20T13:44:17;3.08;;;0.52;;
48207;SDS011;33997;53.278;9.708;2023-07-20T13:46:42;2.47;;;0.50;;
48207;SDS011;33997;53.278;9.708;2023-07-20T13:49:08;3.53;;;0.60;;
48207;SDS011;33997;53.278;9.708;2023-07-20T13:51:34;1.45;;;0.43;;
48207;SDS011;33997;53.278;9.708;2023-07-20T13:53:59;2.53;;;0.70;;
48207;SDS011;33997;53.278;9.708;2023-07-20T13:56:25;1.70;;;0.60;;
48207;SDS011;33997;53.278;9.708;2023-07-20T13:58:52;2.22;;;0.60;;
48207;SDS011;33997;53.278;9.708;2023-07-20T14:01:17;3.22;;;0.65;;
48207;SDS011;33997;53.278;9.708;2023-07-20T14:03:43;3.70;;;0.70;;
48207;SDS011;33997;53.278;9.708;2023-07-20T14:06:08;3.70;;;0.77;;
48207;SDS011;33997;53.278;9.708;2023-07-20T14:08:34;3.60;;;0.57;;
48207;SDS011;33997;53.278;9.708;2023-07-20T14:11:00;2.90;;;0.63;;
48207;SDS011;33997;53.278;9.708;2023-07-20T14:13:25;4.65;;;0.70;;
48207;SDS011;33997;53.278;9.708;2023-07-20T14:15:51;2.42;;;0.47;;
48207;SDS011;33997;53.278;9.708;2023-07-20T14:18:16;2.90;;;0.60;;
48207;SDS011;33997;53.278;9.708;2023-07-20T14:20:42;1.10;;;0.40;;
48207;SDS011;33997;53.278;9.708;2023-07-20T14:23:09;2.15;;;0.65;;
48207;SDS011;33997;53.278;9.708;2023-07-20T14:25:34;2.30;;;0.68;;
48207;SDS011;33997;53.278;9.708;2023-07-20T14:28:00;3.67;;;0.75;;
48207;SDS011;33997;53.278;9.708;2023-07-20T14:30:26;2.20;;;0.68;;
48207;SDS011;33997;53.278;9.708;2023-07-20T14:32:51;5.13;;;0.80;;
48207;SDS011;33997;53.278;9.708;2023-07-20T14:35:17;4.28;;;0.52;;
48207;SDS011;33997;53.278;9.708;2023-07-20T14:37:42;6.15;;;0.70;;
48207;SDS011;33997;53.278;9.708;2023-07-20T14:40:11;6.85;;;0.50;;
48207;SDS011;33997;53.278;9.708;2023-07-20T14:42:37;4.75;;;0.80;;
48207;SDS011;33997;53.278;9.708;2023-07-20T14:45:03;4.82;;;0.77;;
48207;SDS011;33997;53.278;9.708;2023-07-20T14:47:30;3.40;;;0.82;;
48207;SDS011;33997;53.278;9.708;2023-07-20T14:49:57;1.65;;;0.47;;
48207;SDS011;33997;53.278;9.708;2023-07-20T14:52:23;1.35;;;0.60;;
48207;SDS011;33997;53.278;9.708;2023-07-20T14:54:48;4.72;;;0.60;;
48207;SDS011;33997;53.278;9.708;2023-07-20T14:57:14;4.18;;;0.68;;
48207;SDS011;33997;53.278;9.708;2023-07-20T14:59:39;2.03;;;0.70;;
48207;SDS011;33997;53.278;9.708;2023-07-20T15:02:08;3.45;;;0.70;;
48207;SDS011;33997;53.278;9.708;2023-07-20T15:04:34;1.35;;;0.50;;
48207;SDS011;33997;53.278;9.708;2023-07-20T15:06:59;1.40;;;0.55;;
48207;SDS011;33997;53.278;9.708;2023-07-20T15:09:25;3.05;;;0.65;;